M/V Bugra Tomba — TCEJ — position and weather

sailwx.info

Track history (hours):
 
Tides and Currents Weather Stations Pressure Air Temp Water Temp Dewpoint Dewpoint Depression Visibility Wind Speed Wind Dir Waves Ship Positions

M/V Bugra Tomba

Last reported at 2014-Oct-21 21:14 UTC. Time now 2014-Oct-23 21:21 UTC.
Position N 41°00' E 028°60'.

Length 99 m; draft 3.4 m.

Type: Ship. MMSI: 271000025.

Date/timePositionNaut miles runAvg speedWind from/ knotsBaromVisibWave heightAir tempDewpointWater temp
2014-Oct-21 21:14N 41°00' E 028°60'5 7.3
2014-Oct-21 20:33N 40°55' E 028°59'4 1.8
2014-Oct-21 18:06N 40°58' E 028°54'0 0.0
2014-Oct-21 17:06N 40°58' E 028°54'0 0.0
2014-Oct-21 16:24N 40°58' E 028°54'0 0.0
2014-Oct-21 15:13N 40°58' E 028°55'0 0.0
2014-Oct-21 14:12N 40°58' E 028°55'0 0.0
2014-Oct-21 13:30N 40°58' E 028°55'0 0.0
2014-Oct-21 12:21N 40°58' E 028°55'0 0.0
2014-Oct-21 11:30N 40°58' E 028°55'0 0.0
2014-Oct-21 10:32N 40°58' E 028°55'0 0.0
2014-Oct-21 09:33N 40°58' E 028°55'0 0.0
2014-Oct-21 08:33N 40°58' E 028°55'  
2014-Oct-18 05:30N 37°38' E 026°36'19 9.6
2014-Oct-18 03:33N 37°22' E 026°50'55 8.8
2014-Oct-17 21:21N 36°37' E 027°28'  
Track history (hours):
 
Tides and Currents Weather Stations Pressure Air Temp Water Temp Dewpoint Dewpoint Depression Visibility Wind Speed Wind Dir Waves Ship Positions

M/V Bugra Tomba

Last reported at 2014-Oct-21 21:14 UTC. Time now 2014-Oct-23 21:21 UTC.
Position N 41°00' E 028°60'.

Length 99 m; draft 3.4 m.

Type: Ship. MMSI: 271000025.

Date/timePositionNaut miles runAvg speedWind from/ knotsBaromVisibWave heightAir tempDewpointWater temp
2014-Oct-21 21:14N 41°00' E 028°60'5 7.3
2014-Oct-21 20:33N 40°55' E 028°59'4 1.8
2014-Oct-21 18:06N 40°58' E 028°54'0 0.0
2014-Oct-21 17:06N 40°58' E 028°54'0 0.0
2014-Oct-21 16:24N 40°58' E 028°54'0 0.0
2014-Oct-21 15:13N 40°58' E 028°55'0 0.0
2014-Oct-21 14:12N 40°58' E 028°55'0 0.0
2014-Oct-21 13:30N 40°58' E 028°55'0 0.0
2014-Oct-21 12:21N 40°58' E 028°55'0 0.0
2014-Oct-21 11:30N 40°58' E 028°55'0 0.0
2014-Oct-21 10:32N 40°58' E 028°55'0 0.0
2014-Oct-21 09:33N 40°58' E 028°55'0 0.0
2014-Oct-21 08:33N 40°58' E 028°55'  
2014-Oct-18 05:30N 37°38' E 026°36'19 9.6
2014-Oct-18 03:33N 37°22' E 026°50'55 8.8
2014-Oct-17 21:21N 36°37' E 027°28'  

Dump ship's entire track history